createdAt,value
2023-07-29T00:00:45.822Z,15.72
2023-07-29T00:03:12.803Z,15.77
2023-07-29T00:05:39.818Z,15.74
2023-07-29T00:08:06.801Z,15.78
2023-07-29T00:10:33.804Z,15.78
2023-07-29T00:13:00.530Z,15.71
2023-07-29T00:15:27.360Z,15.67
2023-07-29T00:17:54.132Z,15.58
2023-07-29T00:20:20.866Z,15.58
2023-07-29T00:22:47.598Z,15.57
2023-07-29T00:25:14.337Z,15.58
2023-07-29T00:27:41.123Z,15.60
2023-07-29T00:30:08.401Z,15.55
2023-07-29T00:32:36.263Z,15.57
2023-07-29T00:35:02.976Z,15.53
2023-07-29T00:37:31.224Z,15.49
2023-07-29T00:39:59.171Z,15.49
2023-07-29T00:42:26.305Z,15.44
2023-07-29T00:44:52.995Z,15.41
2023-07-29T00:47:19.702Z,15.36
2023-07-29T00:49:46.465Z,15.39
2023-07-29T00:52:13.720Z,15.36
2023-07-29T00:54:41.090Z,15.39
2023-07-29T00:57:11.404Z,15.33
2023-07-29T00:59:38.196Z,15.27
2023-07-29T01:02:05.620Z,15.27
2023-07-29T01:04:32.763Z,15.23
2023-07-29T01:07:13.033Z,15.27
2023-07-29T01:10:04.884Z,15.22
2023-07-29T01:12:46.766Z,15.23
2023-07-29T01:15:42.846Z,15.22
2023-07-29T01:18:24.482Z,15.16
2023-07-29T01:20:52.131Z,15.09
2023-07-29T01:23:27.713Z,15.10
2023-07-29T01:25:54.410Z,15.12
2023-07-29T01:28:21.309Z,15.16
2023-07-29T01:30:48.008Z,15.12
2023-07-29T01:33:19.456Z,15.14
2023-07-29T01:35:51.102Z,15.12
2023-07-29T01:38:22.324Z,15.13
2023-07-29T01:40:50.126Z,15.14
2023-07-29T01:43:16.854Z,15.10
2023-07-29T01:45:43.583Z,15.09
2023-07-29T01:48:10.354Z,15.04
2023-07-29T01:50:37.183Z,15.02
2023-07-29T01:53:03.990Z,15.02
2023-07-29T01:55:30.796Z,14.99
2023-07-29T01:57:57.644Z,14.95
2023-07-29T02:00:24.394Z,14.93
2023-07-29T02:02:51.140Z,14.91
2023-07-29T02:05:17.896Z,14.93
2023-07-29T02:07:44.618Z,14.91
2023-07-29T02:10:11.357Z,14.95
2023-07-29T02:12:38.100Z,14.95
2023-07-29T02:15:05.650Z,14.96
2023-07-29T02:17:32.542Z,14.93
2023-07-29T02:19:59.281Z,14.88
2023-07-29T02:22:25.990Z,14.79
2023-07-29T02:24:52.787Z,14.78
2023-07-29T02:27:19.522Z,14.81
2023-07-29T02:29:46.205Z,14.81
2023-07-29T02:32:12.918Z,14.79
2023-07-29T02:34:39.671Z,14.76
2023-07-29T02:37:06.393Z,14.78
2023-07-29T02:39:33.178Z,14.76
2023-07-29T02:41:59.911Z,14.74
2023-07-29T02:44:26.660Z,14.76
2023-07-29T02:46:54.093Z,14.75
2023-07-29T02:49:20.813Z,14.75
2023-07-29T02:51:47.543Z,14.69
2023-07-29T02:54:14.266Z,14.58
2023-07-29T02:56:40.968Z,14.55
2023-07-29T02:59:07.689Z,14.57
2023-07-29T03:01:34.419Z,14.60
2023-07-29T03:04:01.217Z,14.60
2023-07-29T03:06:27.966Z,14.61
2023-07-29T03:08:54.610Z,14.61
2023-07-29T03:11:21.629Z,14.63
2023-07-29T03:13:48.507Z,14.64
2023-07-29T03:16:17.129Z,14.64
2023-07-29T03:18:44.339Z,14.58
2023-07-29T03:21:11.141Z,14.51
2023-07-29T03:23:39.366Z,14.47
2023-07-29T03:26:11.505Z,14.48
2023-07-29T03:28:40.239Z,14.42
2023-07-29T03:31:07.014Z,14.45
2023-07-29T03:33:33.715Z,14.47
2023-07-29T03:36:00.491Z,14.48
2023-07-29T03:38:27.262Z,14.48
2023-07-29T03:40:54.656Z,14.49
2023-07-29T03:43:21.402Z,14.49
2023-07-29T03:45:48.196Z,14.52
2023-07-29T03:48:14.969Z,14.51
2023-07-29T03:50:41.725Z,14.54
2023-07-29T03:53:08.444Z,14.55
2023-07-29T03:55:35.145Z,14.61
2023-07-29T03:58:01.921Z,14.64
2023-07-29T04:00:28.971Z,14.64
2023-07-29T04:04:04.310Z,14.67
2023-07-29T04:09:01.045Z,14.72
2023-07-29T04:11:27.784Z,14.71
2023-07-29T04:15:48.103Z,14.75
2023-07-29T04:18:14.896Z,14.75
2023-07-29T04:20:41.618Z,14.76
2023-07-29T04:23:08.315Z,14.78
2023-07-29T04:25:35.011Z,14.82
2023-07-29T04:28:01.954Z,14.88
2023-07-29T04:30:28.708Z,14.92
2023-07-29T04:33:41.871Z,14.95
2023-07-29T04:36:08.616Z,15.02
2023-07-29T04:38:35.357Z,15.07
2023-07-29T04:41:03.200Z,15.09
2023-07-29T04:43:32.110Z,15.10
2023-07-29T04:45:58.891Z,15.13
2023-07-29T04:48:25.724Z,15.18
2023-07-29T04:50:52.492Z,15.20
2023-07-29T04:53:19.174Z,15.26
2023-07-29T04:55:46.026Z,15.31
2023-07-29T04:58:12.729Z,15.44
2023-07-29T05:00:39.487Z,15.53
2023-07-29T05:03:06.345Z,15.70
2023-07-29T05:05:33.248Z,15.88
2023-07-29T05:07:59.912Z,16.02
2023-07-29T05:10:26.625Z,16.19
2023-07-29T05:12:53.280Z,16.34
2023-07-29T05:15:20.061Z,16.52
2023-07-29T05:17:46.888Z,16.71
2023-07-29T05:20:13.593Z,16.91
2023-07-29T05:22:40.380Z,17.11
2023-07-29T05:25:07.648Z,17.29
2023-07-29T05:27:34.473Z,17.59
2023-07-29T05:30:01.177Z,17.80
2023-07-29T05:32:27.971Z,18.02
2023-07-29T05:34:54.835Z,18.27
2023-07-29T05:37:21.591Z,18.51
2023-07-29T05:39:48.355Z,18.75
2023-07-29T05:42:15.053Z,18.99
2023-07-29T05:44:41.816Z,19.24
2023-07-29T05:47:08.545Z,19.45
2023-07-29T05:49:35.352Z,19.68
2023-07-29T05:52:02.047Z,19.83
2023-07-29T05:54:28.799Z,19.92
2023-07-29T05:56:55.584Z,20.00
2023-07-29T05:59:22.353Z,20.06
2023-07-29T06:01:49.090Z,20.23
2023-07-29T06:04:15.826Z,20.41
2023-07-29T06:06:42.550Z,20.58
2023-07-29T06:09:09.327Z,20.75
2023-07-29T06:11:36.084Z,20.91
2023-07-29T06:14:02.817Z,21.07
2023-07-29T06:16:29.584Z,21.25
2023-07-29T06:18:56.405Z,21.44
2023-07-29T06:21:23.126Z,21.67
2023-07-29T06:23:49.887Z,21.85
2023-07-29T06:26:16.601Z,22.05
2023-07-29T06:28:43.354Z,22.25
2023-07-29T06:31:10.274Z,22.46
2023-07-29T06:33:37.214Z,22.61
2023-07-29T06:36:04.213Z,22.78
2023-07-29T06:38:31.088Z,23.00
2023-07-29T06:40:57.840Z,23.15
2023-07-29T06:43:24.567Z,23.24
2023-07-29T06:45:51.348Z,23.42
2023-07-29T06:48:18.042Z,23.66
2023-07-29T06:50:44.724Z,23.96
2023-07-29T06:53:11.480Z,24.14
2023-07-29T06:55:38.223Z,24.30
2023-07-29T06:58:04.963Z,24.45
2023-07-29T07:00:31.684Z,24.57
2023-07-29T07:02:58.512Z,24.62
2023-07-29T07:05:25.347Z,24.73
2023-07-29T07:07:52.037Z,24.79
2023-07-29T07:10:19.053Z,24.93
2023-07-29T07:12:45.751Z,24.99
2023-07-29T07:15:12.502Z,25.16
2023-07-29T07:17:39.251Z,25.40
2023-07-29T07:20:06.737Z,25.54
2023-07-29T07:22:33.514Z,25.64
2023-07-29T07:25:00.223Z,25.65
2023-07-29T07:27:26.892Z,25.74
2023-07-29T07:29:53.590Z,25.71
2023-07-29T07:32:20.264Z,25.77
2023-07-29T07:34:47.024Z,25.82
2023-07-29T07:37:13.820Z,25.91
2023-07-29T07:39:40.483Z,25.81
2023-07-29T07:42:07.398Z,25.91
2023-07-29T07:44:34.180Z,26.02
2023-07-29T07:47:03.071Z,26.05
2023-07-29T07:49:31.522Z,26.09
2023-07-29T07:51:58.331Z,26.22
2023-07-29T07:54:25.094Z,26.28
2023-07-29T07:56:51.807Z,26.32
2023-07-29T07:59:18.613Z,26.41
2023-07-29T08:01:45.334Z,26.57
2023-07-29T08:04:12.062Z,26.60
2023-07-29T08:06:39.207Z,26.61
2023-07-29T08:09:06.204Z,26.60
2023-07-29T08:11:33.014Z,26.57
2023-07-29T08:14:00.098Z,26.71
2023-07-29T08:16:26.800Z,26.83
2023-07-29T08:18:53.655Z,26.92
2023-07-29T08:21:20.465Z,26.91
2023-07-29T08:23:47.149Z,26.91
2023-07-29T08:26:13.902Z,26.91
2023-07-29T08:28:40.846Z,27.05
2023-07-29T08:31:07.774Z,27.15
2023-07-29T08:33:34.972Z,27.35
2023-07-29T08:36:02.049Z,27.55
2023-07-29T08:38:29.678Z,27.83
2023-07-29T08:40:59.548Z,27.98
2023-07-29T08:43:31.897Z,27.94
2023-07-29T08:45:59.439Z,28.07
2023-07-29T08:48:44.616Z,28.22
2023-07-29T08:51:12.020Z,28.41
2023-07-29T08:53:39.436Z,28.51
2023-07-29T08:56:06.518Z,28.59
2023-07-29T08:58:33.447Z,28.73
2023-07-29T09:01:00.681Z,28.73
2023-07-29T09:03:27.552Z,28.75
2023-07-29T09:05:54.454Z,28.76
2023-07-29T09:08:22.540Z,28.76
2023-07-29T09:10:49.379Z,28.83
2023-07-29T09:13:16.130Z,28.86
2023-07-29T09:15:43.482Z,29.04
2023-07-29T09:18:17.567Z,29.20
2023-07-29T09:20:44.240Z,29.26
2023-07-29T09:23:11.364Z,29.27
2023-07-29T09:25:39.131Z,29.38
2023-07-29T09:28:13.267Z,29.33
2023-07-29T09:30:47.439Z,29.21
2023-07-29T09:33:14.313Z,29.33
2023-07-29T09:35:41.086Z,29.27
2023-07-29T09:38:08.313Z,29.30
2023-07-29T09:40:39.356Z,29.38
2023-07-29T09:43:06.718Z,29.37
2023-07-29T09:45:34.977Z,29.28
2023-07-29T09:48:02.048Z,29.33
2023-07-29T09:50:28.797Z,29.41
2023-07-29T09:52:56.195Z,29.31
2023-07-29T09:55:24.707Z,29.02
2023-07-29T09:57:59.400Z,28.70
2023-07-29T10:00:26.253Z,28.75
2023-07-29T10:02:53.300Z,28.79
2023-07-29T10:05:21.136Z,28.86
2023-07-29T10:07:47.835Z,28.89
2023-07-29T10:10:14.574Z,28.95
2023-07-29T10:12:43.922Z,29.00
2023-07-29T10:15:10.905Z,28.97
2023-07-29T10:17:38.539Z,29.04
2023-07-29T10:20:06.690Z,29.00
2023-07-29T10:22:43.834Z,29.13
2023-07-29T10:25:14.990Z,29.35
2023-07-29T10:27:45.323Z,29.51
2023-07-29T10:30:13.382Z,29.61
2023-07-29T10:32:40.352Z,29.58
2023-07-29T10:35:07.673Z,29.39
2023-07-29T10:37:34.463Z,29.27
2023-07-29T10:40:01.228Z,29.18
2023-07-29T10:42:27.914Z,29.26
2023-07-29T10:44:54.699Z,29.27
2023-07-29T10:47:25.545Z,29.23
2023-07-29T10:49:57.143Z,29.11
2023-07-29T10:52:31.380Z,29.16
2023-07-29T10:54:59.714Z,29.21
2023-07-29T10:57:39.118Z,29.20
2023-07-29T11:00:06.488Z,29.10
2023-07-29T11:02:34.274Z,29.10
2023-07-29T11:05:01.799Z,29.13
2023-07-29T11:07:28.846Z,29.14
2023-07-29T11:09:57.896Z,29.24
2023-07-29T11:12:47.466Z,29.26
2023-07-29T11:15:27.771Z,29.10
2023-07-29T11:18:01.727Z,28.97
2023-07-29T11:20:29.227Z,29.08
2023-07-29T11:22:56.658Z,29.24
2023-07-29T11:25:24.847Z,29.28
2023-07-29T11:27:55.453Z,29.26
2023-07-29T11:30:22.209Z,29.34
2023-07-29T11:32:49.117Z,29.26
2023-07-29T11:35:19.110Z,29.07
2023-07-29T11:37:47.262Z,28.86
2023-07-29T11:40:18.110Z,28.78
2023-07-29T11:42:44.896Z,28.68
2023-07-29T11:45:12.016Z,28.62
2023-07-29T11:47:38.813Z,28.39
2023-07-29T11:50:06.921Z,28.12
2023-07-29T11:52:39.718Z,27.89
2023-07-29T11:55:06.562Z,27.66
2023-07-29T11:57:37.680Z,27.46
2023-07-29T12:00:06.814Z,27.41
2023-07-29T12:02:37.385Z,27.29
2023-07-29T12:05:05.396Z,27.25
2023-07-29T12:07:32.337Z,27.12
2023-07-29T12:09:58.985Z,27.18
2023-07-29T12:12:25.744Z,27.41
2023-07-29T12:14:52.551Z,27.57
2023-07-29T12:17:19.605Z,27.67
2023-07-29T12:19:46.440Z,27.87
2023-07-29T12:22:13.331Z,28.07
2023-07-29T12:24:41.303Z,28.28
2023-07-29T12:27:12.614Z,28.25
2023-07-29T12:29:47.665Z,28.11
2023-07-29T12:32:15.235Z,27.96
2023-07-29T12:34:42.542Z,27.89
2023-07-29T12:37:09.364Z,27.83
2023-07-29T12:39:42.024Z,27.70
2023-07-29T12:42:08.757Z,27.67
2023-07-29T12:44:36.694Z,27.79
2023-07-29T12:47:04.101Z,28.03
2023-07-29T12:49:31.241Z,28.10
2023-07-29T12:51:58.587Z,27.93
2023-07-29T12:54:25.347Z,27.73
2023-07-29T12:56:52.380Z,27.59
2023-07-29T12:59:19.274Z,27.47
2023-07-29T13:01:45.997Z,27.21
2023-07-29T13:04:12.844Z,26.99
2023-07-29T13:06:39.958Z,26.81
2023-07-29T13:09:06.974Z,26.68
2023-07-29T13:11:34.064Z,26.57
2023-07-29T13:14:01.867Z,26.50
2023-07-29T13:16:31.574Z,26.49
2023-07-29T13:18:58.572Z,26.46
2023-07-29T13:21:25.397Z,26.44
2023-07-29T13:23:52.832Z,26.41
2023-07-29T13:26:19.609Z,26.36
2023-07-29T13:28:46.338Z,26.26
2023-07-29T13:31:14.077Z,26.23
2023-07-29T13:33:40.863Z,26.19
2023-07-29T13:36:09.476Z,26.15
2023-07-29T13:38:36.338Z,26.08
2023-07-29T13:41:03.449Z,25.99
2023-07-29T13:43:30.297Z,25.89
2023-07-29T13:45:57.175Z,25.85
2023-07-29T13:48:23.936Z,25.82
2023-07-29T13:50:52.234Z,25.88
2023-07-29T13:53:19.038Z,25.91
2023-07-29T13:55:45.725Z,25.96
2023-07-29T13:58:12.512Z,26.01
2023-07-29T14:00:39.289Z,26.19
2023-07-29T14:03:06.077Z,26.41
2023-07-29T14:05:32.870Z,26.61
2023-07-29T14:07:59.575Z,26.74
2023-07-29T14:10:26.825Z,26.77
2023-07-29T14:12:53.538Z,26.78
2023-07-29T14:15:20.312Z,26.65
2023-07-29T14:17:47.066Z,26.56
2023-07-29T14:20:14.366Z,26.51
2023-07-29T14:22:41.081Z,26.41
2023-07-29T14:25:08.255Z,26.37
2023-07-29T14:27:35.013Z,26.30
2023-07-29T14:30:01.810Z,26.22
2023-07-29T14:32:28.619Z,26.19
2023-07-29T14:34:55.533Z,26.13
2023-07-29T14:37:22.376Z,26.15
2023-07-29T14:39:49.145Z,26.20
2023-07-29T14:42:16.105Z,26.20
2023-07-29T14:44:42.851Z,26.25
2023-07-29T14:47:09.691Z,26.22
2023-07-29T14:49:36.431Z,26.18
2023-07-29T14:52:03.165Z,26.15
2023-07-29T14:54:29.931Z,26.13
2023-07-29T14:56:56.871Z,26.11
2023-07-29T14:59:23.536Z,26.05
2023-07-29T15:01:50.245Z,26.06
2023-07-29T15:04:17.605Z,26.03
2023-07-29T15:06:44.351Z,26.01
2023-07-29T15:09:11.159Z,25.99
2023-07-29T15:11:37.966Z,25.98
2023-07-29T15:14:04.784Z,25.99
2023-07-29T15:16:31.572Z,25.92
2023-07-29T15:18:59.141Z,25.82
2023-07-29T15:21:25.898Z,25.75
2023-07-29T15:23:52.557Z,25.72
2023-07-29T15:26:19.314Z,25.72
2023-07-29T15:28:46.260Z,25.65
2023-07-29T15:31:13.997Z,25.54
2023-07-29T15:33:40.788Z,25.54
2023-07-29T15:36:07.441Z,25.48
2023-07-29T15:38:34.159Z,25.50
2023-07-29T15:41:00.883Z,25.51
2023-07-29T15:43:27.585Z,25.47
2023-07-29T15:45:54.296Z,25.37
2023-07-29T15:48:21.072Z,25.30
2023-07-29T15:50:47.783Z,25.26
2023-07-29T15:53:14.621Z,25.20
2023-07-29T15:55:41.349Z,25.05
2023-07-29T15:58:08.251Z,25.02
2023-07-29T16:00:35.109Z,24.96
2023-07-29T16:03:02.608Z,24.96
2023-07-29T16:05:29.477Z,24.89
2023-07-29T16:07:58.549Z,24.72
2023-07-29T16:10:25.312Z,24.65
2023-07-29T16:12:52.138Z,24.58
2023-07-29T16:15:18.841Z,24.49
2023-07-29T16:17:47.944Z,24.40
2023-07-29T16:20:14.753Z,24.34
2023-07-29T16:22:41.527Z,24.24
2023-07-29T16:25:08.583Z,24.17
2023-07-29T16:27:35.378Z,24.04
2023-07-29T16:30:02.757Z,24.01
2023-07-29T16:32:29.522Z,23.94
2023-07-29T16:34:56.296Z,23.89
2023-07-29T16:37:23.021Z,23.89
2023-07-29T16:39:49.774Z,23.84
2023-07-29T16:42:16.585Z,23.84
2023-07-29T16:44:43.332Z,23.82
2023-07-29T16:47:10.221Z,23.80
2023-07-29T16:49:37.681Z,23.77
2023-07-29T16:52:04.667Z,23.72
2023-07-29T16:54:31.362Z,23.74
2023-07-29T16:56:58.085Z,23.79
2023-07-29T16:59:24.933Z,23.76
2023-07-29T17:01:51.810Z,23.70
2023-07-29T17:04:18.591Z,23.65
2023-07-29T17:06:45.325Z,23.59
2023-07-29T17:09:12.063Z,23.53
2023-07-29T17:11:38.828Z,23.51
2023-07-29T17:14:05.795Z,23.42
2023-07-29T17:16:32.560Z,23.38
2023-07-29T17:18:59.411Z,23.29
2023-07-29T17:21:26.247Z,23.26
2023-07-29T17:23:53.071Z,23.25
2023-07-29T17:26:19.831Z,23.22
2023-07-29T17:28:47.945Z,23.18
2023-07-29T17:31:14.853Z,23.12
2023-07-29T17:33:43.227Z,23.11
2023-07-29T17:36:10.004Z,23.04
2023-07-29T17:38:36.731Z,23.01
2023-07-29T17:41:03.780Z,22.94
2023-07-29T17:43:30.769Z,22.91
2023-07-29T17:45:57.521Z,22.84
2023-07-29T17:48:24.249Z,22.76
2023-07-29T17:50:51.001Z,22.69
2023-07-29T17:53:17.739Z,22.60
2023-07-29T17:55:44.503Z,22.49
2023-07-29T17:58:11.808Z,22.45
2023-07-29T18:00:38.534Z,22.39
2023-07-29T18:03:05.383Z,22.29
2023-07-29T18:05:32.195Z,22.23
2023-07-29T18:07:58.925Z,22.13
2023-07-29T18:10:26.602Z,22.09
2023-07-29T18:12:53.441Z,22.05
2023-07-29T18:15:20.156Z,21.97
2023-07-29T18:17:46.913Z,21.90
2023-07-29T18:20:13.603Z,21.82
2023-07-29T18:22:40.330Z,21.75
2023-07-29T18:25:07.504Z,21.64
2023-07-29T18:27:34.291Z,21.57
2023-07-29T18:30:01.034Z,21.49
2023-07-29T18:32:27.802Z,21.42
2023-07-29T18:34:54.477Z,21.34
2023-07-29T18:37:21.211Z,21.30
2023-07-29T18:39:47.909Z,21.22
2023-07-29T18:42:14.909Z,21.15
2023-07-29T18:44:41.732Z,21.12
2023-07-29T18:47:09.694Z,21.06
2023-07-29T18:49:36.705Z,21.02
2023-07-29T18:52:03.605Z,20.96
2023-07-29T18:54:34.794Z,20.85
2023-07-29T18:57:02.170Z,20.78
2023-07-29T18:59:28.903Z,20.72
2023-07-29T19:01:55.631Z,20.68
2023-07-29T19:04:22.457Z,20.61
2023-07-29T19:06:50.200Z,20.57
2023-07-29T19:09:17.229Z,20.50
2023-07-29T19:11:43.948Z,20.41
2023-07-29T19:14:10.673Z,20.31
2023-07-29T19:16:38.120Z,20.27
2023-07-29T19:19:05.129Z,20.20
2023-07-29T19:21:32.256Z,20.12
2023-07-29T19:23:58.964Z,20.08
2023-07-29T19:26:25.823Z,20.05
2023-07-29T19:28:52.846Z,20.00
2023-07-29T19:31:19.711Z,19.97
2023-07-29T19:33:46.695Z,19.92
2023-07-29T19:36:13.652Z,19.87
2023-07-29T19:38:40.461Z,19.85
2023-07-29T19:41:07.554Z,19.85
2023-07-29T19:43:34.354Z,19.79
2023-07-29T19:48:33.958Z,19.73
2023-07-29T19:51:00.876Z,19.69
2023-07-29T19:53:28.046Z,19.65
2023-07-29T19:55:54.815Z,19.62
2023-07-29T19:58:21.693Z,19.59
2023-07-29T20:00:51.810Z,19.58
2023-07-29T20:03:19.028Z,19.52
2023-07-29T20:05:45.899Z,19.47
2023-07-29T20:08:12.650Z,19.44
2023-07-29T20:10:39.489Z,19.38
2023-07-29T20:13:06.224Z,19.38
2023-07-29T20:15:33.447Z,19.32
2023-07-29T20:18:00.311Z,19.31
2023-07-29T20:20:27.093Z,19.28
2023-07-29T20:22:53.800Z,19.25
2023-07-29T20:25:20.508Z,19.21
2023-07-29T20:27:47.292Z,19.17
2023-07-29T20:30:14.146Z,19.14
2023-07-29T20:32:40.986Z,19.10
2023-07-29T20:35:08.103Z,19.10
2023-07-29T20:37:34.843Z,19.04
2023-07-29T20:40:04.255Z,18.99
2023-07-29T20:42:31.121Z,18.93
2023-07-29T20:44:57.890Z,18.93
2023-07-29T20:47:24.830Z,18.92
2023-07-29T20:49:51.595Z,18.89
2023-07-29T20:52:18.307Z,18.87
2023-07-29T20:54:45.084Z,18.85
2023-07-29T20:57:11.925Z,18.82
2023-07-29T20:59:38.600Z,18.80
2023-07-29T21:02:05.704Z,18.76
2023-07-29T21:04:32.948Z,18.69
2023-07-29T21:07:00.842Z,18.66
2023-07-29T21:09:27.524Z,18.63
2023-07-29T21:11:56.107Z,18.58
2023-07-29T21:14:24.365Z,18.55
2023-07-29T21:16:51.633Z,18.53
2023-07-29T21:19:18.627Z,18.52
2023-07-29T21:21:47.001Z,18.42
2023-07-29T21:24:14.231Z,18.38
2023-07-29T21:26:41.341Z,18.37
2023-07-29T21:29:08.211Z,18.37
2023-07-29T21:31:35.010Z,18.34
2023-07-29T21:34:01.805Z,18.32
2023-07-29T21:36:28.509Z,18.27
2023-07-29T21:38:57.876Z,18.24
2023-07-29T21:41:25.600Z,18.22
2023-07-29T21:43:52.657Z,18.19
2023-07-29T21:46:19.724Z,18.21
2023-07-29T21:48:47.584Z,18.18
2023-07-29T21:51:14.471Z,18.18
2023-07-29T21:53:41.271Z,18.18
2023-07-29T21:56:08.149Z,18.12
2023-07-29T21:58:35.032Z,18.08
2023-07-29T22:01:01.856Z,18.02
2023-07-29T22:03:28.722Z,18.02
2023-07-29T22:05:55.818Z,18.00
2023-07-29T22:08:22.503Z,17.97
2023-07-29T22:10:49.296Z,17.96
2023-07-29T22:13:15.985Z,17.96
2023-07-29T22:15:42.687Z,17.94
2023-07-29T22:18:09.404Z,17.89
2023-07-29T22:20:36.118Z,17.84
2023-07-29T22:23:03.096Z,17.87
2023-07-29T22:25:29.826Z,17.76
2023-07-29T22:27:56.618Z,17.70
2023-07-29T22:30:25.397Z,17.67
2023-07-29T22:32:53.561Z,17.70
2023-07-29T22:35:20.540Z,17.67
2023-07-29T22:37:47.196Z,17.65
2023-07-29T22:40:17.432Z,17.63
2023-07-29T22:42:44.396Z,17.63
2023-07-29T22:45:11.136Z,17.57
2023-07-29T22:47:37.908Z,17.52
2023-07-29T22:50:04.935Z,17.49
2023-07-29T22:52:31.625Z,17.43
2023-07-29T22:54:58.355Z,17.38
2023-07-29T22:57:25.116Z,17.33
2023-07-29T22:59:51.837Z,17.31
2023-07-29T23:02:18.652Z,17.29
2023-07-29T23:04:45.381Z,17.28
2023-07-29T23:07:12.079Z,17.28
2023-07-29T23:09:38.782Z,17.29
2023-07-29T23:12:05.734Z,17.32
2023-07-29T23:14:32.463Z,17.32
2023-07-29T23:16:59.210Z,17.32
2023-07-29T23:19:25.883Z,17.35
2023-07-29T23:21:52.641Z,17.33
2023-07-29T23:24:19.408Z,17.33
2023-07-29T23:26:46.180Z,17.29
2023-07-29T23:29:12.911Z,17.32
2023-07-29T23:31:39.895Z,17.29
2023-07-29T23:34:06.909Z,17.29
2023-07-29T23:36:33.596Z,17.25
2023-07-29T23:39:00.295Z,17.22
2023-07-29T23:41:26.954Z,17.18
2023-07-29T23:43:53.658Z,17.12
2023-07-29T23:46:20.424Z,17.08
2023-07-29T23:48:47.105Z,17.08
2023-07-29T23:51:13.760Z,17.02
2023-07-29T23:53:40.507Z,16.96
2023-07-29T23:56:07.216Z,16.92
2023-07-29T23:58:33.904Z,16.92
